sensor_id;sensor_type;location;lat;lon;timestamp;P1;durP1;ratioP1;P2;durP2;ratioP2
51588;SDS011;37671;53.258;6.460;2022-12-29T00:01:57;7.00;;;4.40;;
51588;SDS011;37671;53.258;6.460;2022-12-29T00:04:23;7.57;;;4.32;;
51588;SDS011;37671;53.258;6.460;2022-12-29T00:06:48;7.05;;;4.70;;
51588;SDS011;37671;53.258;6.460;2022-12-29T00:09:15;7.68;;;4.35;;
51588;SDS011;37671;53.258;6.460;2022-12-29T00:11:41;7.43;;;5.10;;
51588;SDS011;37671;53.258;6.460;2022-12-29T00:14:10;6.13;;;4.30;;
51588;SDS011;37671;53.258;6.460;2022-12-29T00:16:55;6.40;;;4.60;;
51588;SDS011;37671;53.258;6.460;2022-12-29T00:19:21;5.65;;;3.90;;
51588;SDS011;37671;53.258;6.460;2022-12-29T00:22:08;5.97;;;3.85;;
51588;SDS011;37671;53.258;6.460;2022-12-29T00:24:56;5.90;;;4.18;;
51588;SDS011;37671;53.258;6.460;2022-12-29T00:27:34;6.65;;;3.65;;
51588;SDS011;37671;53.258;6.460;2022-12-29T00:30:19;4.82;;;3.22;;
51588;SDS011;37671;53.258;6.460;2022-12-29T00:33:12;6.40;;;3.47;;
51588;SDS011;37671;53.258;6.460;2022-12-29T00:36:02;4.95;;;3.38;;
51588;SDS011;37671;53.258;6.460;2022-12-29T00:38:55;6.25;;;3.65;;
51588;SDS011;37671;53.258;6.460;2022-12-29T00:41:43;5.55;;;3.17;;
51588;SDS011;37671;53.258;6.460;2022-12-29T00:44:27;5.85;;;3.30;;
51588;SDS011;37671;53.258;6.460;2022-12-29T00:46:52;5.57;;;3.33;;
51588;SDS011;37671;53.258;6.460;2022-12-29T00:49:18;4.65;;;3.45;;
51588;SDS011;37671;53.258;6.460;2022-12-29T00:51:57;5.53;;;3.67;;
51588;SDS011;37671;53.258;6.460;2022-12-29T00:54:25;5.05;;;3.47;;
51588;SDS011;37671;53.258;6.460;2022-12-29T00:56:51;5.43;;;3.05;;
51588;SDS011;37671;53.258;6.460;2022-12-29T00:59:17;4.43;;;3.25;;
51588;SDS011;37671;53.258;6.460;2022-12-29T01:01:44;6.40;;;2.78;;
51588;SDS011;37671;53.258;6.460;2022-12-29T01:04:10;7.65;;;3.40;;
51588;SDS011;37671;53.258;6.460;2022-12-29T01:06:37;5.57;;;3.35;;
51588;SDS011;37671;53.258;6.460;2022-12-29T01:09:03;4.72;;;3.30;;
51588;SDS011;37671;53.258;6.460;2022-12-29T01:11:48;5.38;;;3.67;;
51588;SDS011;37671;53.258;6.460;2022-12-29T01:14:13;6.07;;;3.45;;
51588;SDS011;37671;53.258;6.460;2022-12-29T01:16:39;5.53;;;3.08;;
51588;SDS011;37671;53.258;6.460;2022-12-29T01:19:05;4.78;;;3.40;;
51588;SDS011;37671;53.258;6.460;2022-12-29T01:21:31;4.95;;;3.55;;
51588;SDS011;37671;53.258;6.460;2022-12-29T01:23:57;5.78;;;3.15;;
51588;SDS011;37671;53.258;6.460;2022-12-29T01:26:23;6.97;;;3.65;;
51588;SDS011;37671;53.258;6.460;2022-12-29T01:28:48;6.38;;;3.50;;
51588;SDS011;37671;53.258;6.460;2022-12-29T01:31:14;5.60;;;3.58;;
51588;SDS011;37671;53.258;6.460;2022-12-29T01:33:41;5.75;;;3.35;;
51588;SDS011;37671;53.258;6.460;2022-12-29T01:36:09;8.15;;;3.42;;
51588;SDS011;37671;53.258;6.460;2022-12-29T01:38:37;5.80;;;3.13;;
51588;SDS011;37671;53.258;6.460;2022-12-29T01:41:03;5.95;;;3.20;;
51588;SDS011;37671;53.258;6.460;2022-12-29T01:43:43;5.15;;;3.08;;
51588;SDS011;37671;53.258;6.460;2022-12-29T01:46:13;8.32;;;4.03;;
51588;SDS011;37671;53.258;6.460;2022-12-29T01:51:48;6.28;;;3.60;;
51588;SDS011;37671;53.258;6.460;2022-12-29T01:54:22;5.22;;;3.30;;
51588;SDS011;37671;53.258;6.460;2022-12-29T01:56:53;7.47;;;3.80;;
51588;SDS011;37671;53.258;6.460;2022-12-29T01:59:22;6.50;;;4.00;;
51588;SDS011;37671;53.258;6.460;2022-12-29T06:02:25;8.88;;;1.50;;
51588;SDS011;37671;53.258;6.460;2022-12-29T06:04:50;10.15;;;1.48;;
51588;SDS011;37671;53.258;6.460;2022-12-29T06:07:16;12.35;;;1.80;;
51588;SDS011;37671;53.258;6.460;2022-12-29T06:09:42;10.35;;;1.65;;
51588;SDS011;37671;53.258;6.460;2022-12-29T06:12:07;13.00;;;1.98;;
51588;SDS011;37671;53.258;6.460;2022-12-29T06:14:33;13.77;;;1.90;;
51588;SDS011;37671;53.258;6.460;2022-12-29T06:16:58;11.65;;;2.03;;
51588;SDS011;37671;53.258;6.460;2022-12-29T06:19:24;12.10;;;2.53;;
51588;SDS011;37671;53.258;6.460;2022-12-29T06:21:50;13.45;;;2.10;;
51588;SDS011;37671;53.258;6.460;2022-12-29T06:24:17;8.85;;;1.67;;
51588;SDS011;37671;53.258;6.460;2022-12-29T06:26:43;13.05;;;1.67;;
51588;SDS011;37671;53.258;6.460;2022-12-29T06:29:09;15.23;;;1.70;;
51588;SDS011;37671;53.258;6.460;2022-12-29T06:31:34;14.90;;;2.20;;
51588;SDS011;37671;53.258;6.460;2022-12-29T06:34:00;11.30;;;1.83;;
51588;SDS011;37671;53.258;6.460;2022-12-29T06:36:26;16.05;;;2.33;;
51588;SDS011;37671;53.258;6.460;2022-12-29T06:38:51;14.43;;;1.80;;
51588;SDS011;37671;53.258;6.460;2022-12-29T06:41:18;16.25;;;2.00;;
51588;SDS011;37671;53.258;6.460;2022-12-29T06:43:44;11.93;;;1.88;;
51588;SDS011;37671;53.258;6.460;2022-12-29T06:46:10;14.50;;;2.65;;
51588;SDS011;37671;53.258;6.460;2022-12-29T06:48:36;12.23;;;2.00;;
51588;SDS011;37671;53.258;6.460;2022-12-29T06:51:01;19.30;;;2.20;;
51588;SDS011;37671;53.258;6.460;2022-12-29T06:53:27;13.85;;;2.25;;
51588;SDS011;37671;53.258;6.460;2022-12-29T06:55:53;12.50;;;1.98;;
51588;SDS011;37671;53.258;6.460;2022-12-29T06:58:18;14.52;;;2.10;;
51588;SDS011;37671;53.258;6.460;2022-12-29T07:00:44;13.90;;;1.77;;
51588;SDS011;37671;53.258;6.460;2022-12-29T07:03:10;12.93;;;1.88;;
51588;SDS011;37671;53.258;6.460;2022-12-29T07:05:35;14.70;;;1.83;;
51588;SDS011;37671;53.258;6.460;2022-12-29T07:08:01;15.88;;;2.17;;
51588;SDS011;37671;53.258;6.460;2022-12-29T07:10:27;17.45;;;2.35;;
51588;SDS011;37671;53.258;6.460;2022-12-29T07:12:53;19.45;;;3.35;;
51588;SDS011;37671;53.258;6.460;2022-12-29T07:15:18;19.05;;;2.33;;
51588;SDS011;37671;53.258;6.460;2022-12-29T07:17:44;12.75;;;1.92;;
51588;SDS011;37671;53.258;6.460;2022-12-29T07:20:09;15.65;;;2.20;;
51588;SDS011;37671;53.258;6.460;2022-12-29T07:22:35;16.70;;;1.70;;
51588;SDS011;37671;53.258;6.460;2022-12-29T07:25:01;13.10;;;2.47;;
51588;SDS011;37671;53.258;6.460;2022-12-29T07:27:28;13.63;;;2.03;;
51588;SDS011;37671;53.258;6.460;2022-12-29T07:29:53;12.65;;;2.15;;
51588;SDS011;37671;53.258;6.460;2022-12-29T07:32:19;16.38;;;2.20;;
51588;SDS011;37671;53.258;6.460;2022-12-29T07:34:45;11.00;;;2.22;;
51588;SDS011;37671;53.258;6.460;2022-12-29T07:37:12;14.00;;;1.83;;
51588;SDS011;37671;53.258;6.460;2022-12-29T07:39:39;13.90;;;2.13;;
51588;SDS011;37671;53.258;6.460;2022-12-29T07:42:05;15.77;;;1.92;;
51588;SDS011;37671;53.258;6.460;2022-12-29T07:44:31;12.05;;;1.73;;
51588;SDS011;37671;53.258;6.460;2022-12-29T07:46:56;15.25;;;2.22;;
51588;SDS011;37671;53.258;6.460;2022-12-29T07:49:22;18.73;;;2.70;;
51588;SDS011;37671;53.258;6.460;2022-12-29T07:51:47;10.10;;;1.70;;
51588;SDS011;37671;53.258;6.460;2022-12-29T07:54:13;14.68;;;2.05;;
51588;SDS011;37671;53.258;6.460;2022-12-29T07:56:39;9.80;;;1.60;;
51588;SDS011;37671;53.258;6.460;2022-12-29T07:59:04;13.00;;;1.63;;
51588;SDS011;37671;53.258;6.460;2022-12-29T08:01:30;14.38;;;2.67;;
51588;SDS011;37671;53.258;6.460;2022-12-29T08:03:56;13.02;;;2.58;;
51588;SDS011;37671;53.258;6.460;2022-12-29T08:06:21;13.45;;;2.47;;
51588;SDS011;37671;53.258;6.460;2022-12-29T08:08:47;24.90;;;3.22;;
51588;SDS011;37671;53.258;6.460;2022-12-29T08:11:13;21.08;;;2.67;;
51588;SDS011;37671;53.258;6.460;2022-12-29T08:13:38;17.52;;;2.55;;
51588;SDS011;37671;53.258;6.460;2022-12-29T08:16:04;18.63;;;2.95;;
51588;SDS011;37671;53.258;6.460;2022-12-29T08:18:30;19.02;;;3.22;;
51588;SDS011;37671;53.258;6.460;2022-12-29T08:21:00;16.13;;;2.85;;
51588;SDS011;37671;53.258;6.460;2022-12-29T08:23:27;12.00;;;2.03;;
51588;SDS011;37671;53.258;6.460;2022-12-29T08:25:57;18.33;;;3.65;;
51588;SDS011;37671;53.258;6.460;2022-12-29T08:28:28;14.60;;;2.58;;
51588;SDS011;37671;53.258;6.460;2022-12-29T08:30:56;14.38;;;2.33;;
51588;SDS011;37671;53.258;6.460;2022-12-29T08:33:23;17.77;;;2.38;;
51588;SDS011;37671;53.258;6.460;2022-12-29T08:35:49;21.23;;;2.80;;
51588;SDS011;37671;53.258;6.460;2022-12-29T08:38:15;16.65;;;2.70;;
51588;SDS011;37671;53.258;6.460;2022-12-29T08:40:40;16.65;;;2.58;;
51588;SDS011;37671;53.258;6.460;2022-12-29T08:43:06;17.40;;;2.35;;
51588;SDS011;37671;53.258;6.460;2022-12-29T08:45:32;16.73;;;2.55;;
51588;SDS011;37671;53.258;6.460;2022-12-29T08:47:57;13.88;;;2.15;;
51588;SDS011;37671;53.258;6.460;2022-12-29T08:50:23;18.08;;;2.55;;
51588;SDS011;37671;53.258;6.460;2022-12-29T08:52:49;15.40;;;2.50;;
51588;SDS011;37671;53.258;6.460;2022-12-29T08:55:14;16.45;;;2.58;;
51588;SDS011;37671;53.258;6.460;2022-12-29T08:57:40;20.00;;;2.70;;
51588;SDS011;37671;53.258;6.460;2022-12-29T09:00:06;18.13;;;2.60;;
51588;SDS011;37671;53.258;6.460;2022-12-29T09:02:32;25.38;;;2.97;;
51588;SDS011;37671;53.258;6.460;2022-12-29T09:04:58;17.98;;;2.90;;
51588;SDS011;37671;53.258;6.460;2022-12-29T09:07:25;20.80;;;3.50;;
51588;SDS011;37671;53.258;6.460;2022-12-29T09:09:50;20.45;;;3.25;;
51588;SDS011;37671;53.258;6.460;2022-12-29T09:12:17;18.95;;;2.60;;
51588;SDS011;37671;53.258;6.460;2022-12-29T09:14:43;17.48;;;3.33;;
51588;SDS011;37671;53.258;6.460;2022-12-29T09:17:09;19.33;;;3.15;;
51588;SDS011;37671;53.258;6.460;2022-12-29T09:19:53;19.80;;;3.75;;
51588;SDS011;37671;53.258;6.460;2022-12-29T09:22:20;19.65;;;3.97;;
51588;SDS011;37671;53.258;6.460;2022-12-29T09:24:46;24.70;;;3.22;;
51588;SDS011;37671;53.258;6.460;2022-12-29T09:27:11;18.27;;;3.10;;
51588;SDS011;37671;53.258;6.460;2022-12-29T09:29:37;19.23;;;2.88;;
51588;SDS011;37671;53.258;6.460;2022-12-29T09:32:03;18.88;;;3.22;;
51588;SDS011;37671;53.258;6.460;2022-12-29T09:34:29;17.85;;;2.90;;
51588;SDS011;37671;53.258;6.460;2022-12-29T09:36:54;16.77;;;2.95;;
51588;SDS011;37671;53.258;6.460;2022-12-29T09:39:21;17.67;;;3.40;;
51588;SDS011;37671;53.258;6.460;2022-12-29T09:44:46;19.67;;;2.80;;
51588;SDS011;37671;53.258;6.460;2022-12-29T09:47:29;21.33;;;3.08;;
51588;SDS011;37671;53.258;6.460;2022-12-29T09:49:56;22.20;;;2.83;;
51588;SDS011;37671;53.258;6.460;2022-12-29T09:52:36;22.05;;;3.00;;
51588;SDS011;37671;53.258;6.460;2022-12-29T10:00:39;15.07;;;2.67;;
51588;SDS011;37671;53.258;6.460;2022-12-29T10:03:22;12.00;;;2.22;;
51588;SDS011;37671;53.258;6.460;2022-12-29T10:08:42;13.07;;;2.30;;
51588;SDS011;37671;53.258;6.460;2022-12-29T10:16:44;14.75;;;2.40;;
51588;SDS011;37671;53.258;6.460;2022-12-29T10:22:03;17.75;;;2.15;;
51588;SDS011;37671;53.258;6.460;2022-12-29T10:24:54;14.10;;;2.33;;
51588;SDS011;37671;53.258;6.460;2022-12-29T10:27:21;9.43;;;2.42;;
51588;SDS011;37671;53.258;6.460;2022-12-29T10:29:50;12.68;;;1.92;;
51588;SDS011;37671;53.258;6.460;2022-12-29T10:32:29;10.57;;;1.73;;
51588;SDS011;37671;53.258;6.460;2022-12-29T10:35:22;10.10;;;2.00;;
51588;SDS011;37671;53.258;6.460;2022-12-29T10:37:55;14.98;;;1.77;;
51588;SDS011;37671;53.258;6.460;2022-12-29T10:43:26;13.88;;;1.80;;
51588;SDS011;37671;53.258;6.460;2022-12-29T10:45:53;12.73;;;2.15;;
51588;SDS011;37671;53.258;6.460;2022-12-29T10:48:22;16.17;;;2.20;;
51588;SDS011;37671;53.258;6.460;2022-12-29T10:51:00;12.23;;;2.05;;
51588;SDS011;37671;53.258;6.460;2022-12-29T10:53:38;18.83;;;2.75;;
51588;SDS011;37671;53.258;6.460;2022-12-29T10:56:14;17.00;;;2.40;;
51588;SDS011;37671;53.258;6.460;2022-12-29T10:58:50;18.67;;;2.92;;
51588;SDS011;37671;53.258;6.460;2022-12-29T11:01:19;16.85;;;2.35;;
51588;SDS011;37671;53.258;6.460;2022-12-29T11:04:07;16.85;;;2.80;;
51588;SDS011;37671;53.258;6.460;2022-12-29T11:06:51;23.35;;;3.17;;
51588;SDS011;37671;53.258;6.460;2022-12-29T11:09:20;16.95;;;2.63;;
51588;SDS011;37671;53.258;6.460;2022-12-29T11:11:49;18.77;;;3.40;;
51588;SDS011;37671;53.258;6.460;2022-12-29T11:14:18;20.83;;;3.47;;
51588;SDS011;37671;53.258;6.460;2022-12-29T11:16:56;18.10;;;3.10;;
51588;SDS011;37671;53.258;6.460;2022-12-29T11:19:26;27.80;;;3.33;;
51588;SDS011;37671;53.258;6.460;2022-12-29T11:21:53;24.02;;;3.33;;
51588;SDS011;37671;53.258;6.460;2022-12-29T11:24:27;21.38;;;3.47;;
51588;SDS011;37671;53.258;6.460;2022-12-29T11:29:47;17.30;;;3.22;;
51588;SDS011;37671;53.258;6.460;2022-12-29T11:32:27;27.10;;;3.30;;
51588;SDS011;37671;53.258;6.460;2022-12-29T11:34:57;21.70;;;3.50;;
51588;SDS011;37671;53.258;6.460;2022-12-29T11:37:27;23.88;;;3.33;;
51588;SDS011;37671;53.258;6.460;2022-12-29T11:40:02;23.70;;;3.42;;
51588;SDS011;37671;53.258;6.460;2022-12-29T11:42:40;20.55;;;3.63;;
51588;SDS011;37671;53.258;6.460;2022-12-29T11:45:16;22.40;;;3.33;;
51588;SDS011;37671;53.258;6.460;2022-12-29T11:47:45;19.40;;;3.55;;
51588;SDS011;37671;53.258;6.460;2022-12-29T11:50:22;22.67;;;3.50;;
51588;SDS011;37671;53.258;6.460;2022-12-29T11:52:50;22.83;;;3.67;;
51588;SDS011;37671;53.258;6.460;2022-12-29T11:55:24;21.83;;;3.83;;
51588;SDS011;37671;53.258;6.460;2022-12-29T11:57:52;22.33;;;2.97;;
51588;SDS011;37671;53.258;6.460;2022-12-29T12:00:21;19.42;;;2.78;;
51588;SDS011;37671;53.258;6.460;2022-12-29T12:05:23;24.83;;;3.65;;
51588;SDS011;37671;53.258;6.460;2022-12-29T12:08:14;20.65;;;3.08;;
51588;SDS011;37671;53.258;6.460;2022-12-29T12:10:46;22.38;;;3.00;;
51588;SDS011;37671;53.258;6.460;2022-12-29T12:13:20;17.65;;;2.65;;
51588;SDS011;37671;53.258;6.460;2022-12-29T12:15:54;17.25;;;3.08;;
51588;SDS011;37671;53.258;6.460;2022-12-29T12:21:10;20.60;;;2.70;;
51588;SDS011;37671;53.258;6.460;2022-12-29T12:26:13;14.90;;;2.40;;
51588;SDS011;37671;53.258;6.460;2022-12-29T12:34:20;11.57;;;1.67;;
51588;SDS011;37671;53.258;6.460;2022-12-29T12:39:31;12.45;;;2.00;;
51588;SDS011;37671;53.258;6.460;2022-12-29T12:42:45;12.23;;;1.98;;
51588;SDS011;37671;53.258;6.460;2022-12-29T12:56:44;9.48;;;1.50;;
51588;SDS011;37671;53.258;6.460;2022-12-29T13:10:42;11.88;;;1.40;;
51588;SDS011;37671;53.258;6.460;2022-12-29T13:34:56;13.95;;;1.60;;
51588;SDS011;37671;53.258;6.460;2022-12-29T13:37:50;11.13;;;1.25;;
51588;SDS011;37671;53.258;6.460;2022-12-29T13:40:25;5.55;;;1.05;;
51588;SDS011;37671;53.258;6.460;2022-12-29T13:42:53;9.68;;;1.42;;
51588;SDS011;37671;53.258;6.460;2022-12-29T13:45:22;8.20;;;1.25;;
51588;SDS011;37671;53.258;6.460;2022-12-29T13:47:59;14.18;;;1.95;;
51588;SDS011;37671;53.258;6.460;2022-12-29T13:50:33;8.40;;;1.40;;
51588;SDS011;37671;53.258;6.460;2022-12-29T13:59:11;15.18;;;1.80;;
51588;SDS011;37671;53.258;6.460;2022-12-29T14:02:07;14.48;;;1.70;;
51588;SDS011;37671;53.258;6.460;2022-12-29T14:04:57;7.82;;;1.30;;
51588;SDS011;37671;53.258;6.460;2022-12-29T14:07:24;8.40;;;1.45;;
51588;SDS011;37671;53.258;6.460;2022-12-29T14:09:51;12.13;;;1.70;;
51588;SDS011;37671;53.258;6.460;2022-12-29T14:17:35;11.63;;;2.85;;
51588;SDS011;37671;53.258;6.460;2022-12-29T14:20:02;8.32;;;1.25;;
51588;SDS011;37671;53.258;6.460;2022-12-29T14:22:32;13.70;;;1.67;;
51588;SDS011;37671;53.258;6.460;2022-12-29T14:24:58;15.65;;;1.52;;
51588;SDS011;37671;53.258;6.460;2022-12-29T14:29:53;12.27;;;1.70;;
51588;SDS011;37671;53.258;6.460;2022-12-29T14:34:52;9.82;;;1.10;;
51588;SDS011;37671;53.258;6.460;2022-12-29T14:37:32;10.95;;;2.15;;
51588;SDS011;37671;53.258;6.460;2022-12-29T14:40:16;12.82;;;2.05;;
51588;SDS011;37671;53.258;6.460;2022-12-29T14:42:51;16.88;;;1.92;;
51588;SDS011;37671;53.258;6.460;2022-12-29T14:45:30;9.18;;;1.38;;
51588;SDS011;37671;53.258;6.460;2022-12-29T14:48:02;9.30;;;1.35;;
51588;SDS011;37671;53.258;6.460;2022-12-29T14:50:48;11.20;;;1.80;;
51588;SDS011;37671;53.258;6.460;2022-12-29T14:56:19;15.82;;;2.47;;
51588;SDS011;37671;53.258;6.460;2022-12-29T14:58:51;15.93;;;1.90;;
51588;SDS011;37671;53.258;6.460;2022-12-29T15:01:28;13.20;;;1.83;;
51588;SDS011;37671;53.258;6.460;2022-12-29T15:03:59;10.60;;;1.70;;
51588;SDS011;37671;53.258;6.460;2022-12-29T15:06:30;12.75;;;1.88;;
51588;SDS011;37671;53.258;6.460;2022-12-29T15:14:03;14.80;;;2.60;;
51588;SDS011;37671;53.258;6.460;2022-12-29T15:16:48;14.65;;;2.30;;
51588;SDS011;37671;53.258;6.460;2022-12-29T15:19:21;15.07;;;2.20;;
51588;SDS011;37671;53.258;6.460;2022-12-29T15:21:47;12.02;;;1.92;;
51588;SDS011;37671;53.258;6.460;2022-12-29T15:24:13;18.70;;;2.53;;
51588;SDS011;37671;53.258;6.460;2022-12-29T15:26:44;12.43;;;2.67;;
51588;SDS011;37671;53.258;6.460;2022-12-29T15:29:31;16.77;;;2.47;;
51588;SDS011;37671;53.258;6.460;2022-12-29T15:32:02;14.90;;;1.83;;
51588;SDS011;37671;53.258;6.460;2022-12-29T15:34:44;15.07;;;2.10;;
51588;SDS011;37671;53.258;6.460;2022-12-29T15:37:25;13.20;;;2.15;;
51588;SDS011;37671;53.258;6.460;2022-12-29T15:39:53;14.18;;;2.65;;
51588;SDS011;37671;53.258;6.460;2022-12-29T15:42:32;13.48;;;2.17;;
51588;SDS011;37671;53.258;6.460;2022-12-29T15:45:17;12.95;;;2.35;;
51588;SDS011;37671;53.258;6.460;2022-12-29T15:47:44;10.32;;;4.40;;
51588;SDS011;37671;53.258;6.460;2022-12-29T15:52:51;13.50;;;2.28;;
51588;SDS011;37671;53.258;6.460;2022-12-29T15:55:35;17.67;;;2.83;;
51588;SDS011;37671;53.258;6.460;2022-12-29T15:58:17;14.02;;;2.10;;
51588;SDS011;37671;53.258;6.460;2022-12-29T16:00:49;8.13;;;1.98;;
51588;SDS011;37671;53.258;6.460;2022-12-29T16:03:26;21.02;;;2.40;;
51588;SDS011;37671;53.258;6.460;2022-12-29T16:11:39;12.80;;;1.85;;
51588;SDS011;37671;53.258;6.460;2022-12-29T16:14:09;14.23;;;2.08;;
51588;SDS011;37671;53.258;6.460;2022-12-29T16:16:43;18.27;;;2.15;;
51588;SDS011;37671;53.258;6.460;2022-12-29T16:19:32;14.07;;;2.00;;
51588;SDS011;37671;53.258;6.460;2022-12-29T16:22:01;19.20;;;2.35;;
51588;SDS011;37671;53.258;6.460;2022-12-29T16:24:29;12.70;;;1.73;;
51588;SDS011;37671;53.258;6.460;2022-12-29T16:27:07;14.02;;;2.15;;
51588;SDS011;37671;53.258;6.460;2022-12-29T16:29:42;11.25;;;1.45;;
51588;SDS011;37671;53.258;6.460;2022-12-29T16:35:18;9.98;;;1.70;;
51588;SDS011;37671;53.258;6.460;2022-12-29T16:37:45;8.18;;;0.93;;
51588;SDS011;37671;53.258;6.460;2022-12-29T16:47:44;11.45;;;1.73;;
51588;SDS011;37671;53.258;6.460;2022-12-29T16:50:20;12.90;;;1.92;;
51588;SDS011;37671;53.258;6.460;2022-12-29T16:52:49;14.70;;;1.90;;
51588;SDS011;37671;53.258;6.460;2022-12-29T16:55:16;9.32;;;1.30;;
51588;SDS011;37671;53.258;6.460;2022-12-29T16:57:43;11.55;;;1.33;;
51588;SDS011;37671;53.258;6.460;2022-12-29T17:00:19;9.13;;;1.88;;
51588;SDS011;37671;53.258;6.460;2022-12-29T17:02:47;9.60;;;1.85;;
51588;SDS011;37671;53.258;6.460;2022-12-29T17:05:16;8.98;;;1.92;;
51588;SDS011;37671;53.258;6.460;2022-12-29T17:07:43;9.82;;;1.40;;
51588;SDS011;37671;53.258;6.460;2022-12-29T17:10:09;8.35;;;1.42;;
51588;SDS011;37671;53.258;6.460;2022-12-29T17:12:35;10.60;;;1.75;;
51588;SDS011;37671;53.258;6.460;2022-12-29T17:15:05;12.07;;;2.13;;
51588;SDS011;37671;53.258;6.460;2022-12-29T17:17:42;7.60;;;1.75;;
51588;SDS011;37671;53.258;6.460;2022-12-29T17:20:17;12.50;;;2.13;;
51588;SDS011;37671;53.258;6.460;2022-12-29T17:22:48;11.85;;;1.80;;
51588;SDS011;37671;53.258;6.460;2022-12-29T17:25:19;10.05;;;1.55;;
51588;SDS011;37671;53.258;6.460;2022-12-29T17:27:51;14.55;;;2.40;;
51588;SDS011;37671;53.258;6.460;2022-12-29T17:30:21;11.50;;;2.28;;
51588;SDS011;37671;53.258;6.460;2022-12-29T17:32:50;14.57;;;2.22;;
51588;SDS011;37671;53.258;6.460;2022-12-29T17:35:19;16.23;;;3.88;;
51588;SDS011;37671;53.258;6.460;2022-12-29T17:37:46;12.98;;;2.55;;
51588;SDS011;37671;53.258;6.460;2022-12-29T17:40:14;17.08;;;2.47;;
51588;SDS011;37671;53.258;6.460;2022-12-29T17:42:42;15.40;;;2.30;;
51588;SDS011;37671;53.258;6.460;2022-12-29T17:45:21;20.67;;;2.47;;
51588;SDS011;37671;53.258;6.460;2022-12-29T17:47:52;18.90;;;3.13;;
51588;SDS011;37671;53.258;6.460;2022-12-29T17:50:19;15.57;;;2.30;;
51588;SDS011;37671;53.258;6.460;2022-12-29T17:52:55;15.07;;;2.20;;
51588;SDS011;37671;53.258;6.460;2022-12-29T17:55:29;14.43;;;2.15;;
51588;SDS011;37671;53.258;6.460;2022-12-29T17:57:55;23.95;;;2.65;;
51588;SDS011;37671;53.258;6.460;2022-12-29T18:00:22;23.50;;;3.05;;
51588;SDS011;37671;53.258;6.460;2022-12-29T18:02:53;20.98;;;2.70;;
51588;SDS011;37671;53.258;6.460;2022-12-29T18:05:27;19.25;;;2.60;;
51588;SDS011;37671;53.258;6.460;2022-12-29T18:07:55;15.10;;;2.38;;
51588;SDS011;37671;53.258;6.460;2022-12-29T18:10:22;20.27;;;2.30;;
51588;SDS011;37671;53.258;6.460;2022-12-29T18:12:50;21.35;;;2.45;;
51588;SDS011;37671;53.258;6.460;2022-12-29T18:15:21;22.05;;;2.28;;
51588;SDS011;37671;53.258;6.460;2022-12-29T18:17:58;15.90;;;3.00;;
51588;SDS011;37671;53.258;6.460;2022-12-29T18:20:27;20.02;;;2.47;;
51588;SDS011;37671;53.258;6.460;2022-12-29T18:22:53;20.17;;;2.55;;
51588;SDS011;37671;53.258;6.460;2022-12-29T18:27:51;23.05;;;3.45;;
51588;SDS011;37671;53.258;6.460;2022-12-29T18:30:17;17.60;;;2.60;;
51588;SDS011;37671;53.258;6.460;2022-12-29T18:32:42;17.27;;;2.25;;
51588;SDS011;37671;53.258;6.460;2022-12-29T18:38:02;18.88;;;3.25;;
51588;SDS011;37671;53.258;6.460;2022-12-29T18:40:30;20.42;;;2.50;;
51588;SDS011;37671;53.258;6.460;2022-12-29T18:42:59;16.98;;;2.55;;
51588;SDS011;37671;53.258;6.460;2022-12-29T18:45:25;18.45;;;2.47;;
51588;SDS011;37671;53.258;6.460;2022-12-29T18:47:51;15.95;;;2.42;;
51588;SDS011;37671;53.258;6.460;2022-12-29T18:50:17;21.17;;;3.22;;
51588;SDS011;37671;53.258;6.460;2022-12-29T18:52:44;16.75;;;2.70;;
51588;SDS011;37671;53.258;6.460;2022-12-29T18:55:11;16.45;;;2.17;;
51588;SDS011;37671;53.258;6.460;2022-12-29T18:57:41;15.55;;;2.35;;
51588;SDS011;37671;53.258;6.460;2022-12-29T19:00:07;22.77;;;3.08;;
51588;SDS011;37671;53.258;6.460;2022-12-29T19:02:34;23.85;;;4.13;;
51588;SDS011;37671;53.258;6.460;2022-12-29T19:05:00;22.15;;;6.28;;
51588;SDS011;37671;53.258;6.460;2022-12-29T19:07:26;27.77;;;8.90;;
51588;SDS011;37671;53.258;6.460;2022-12-29T19:09:52;18.10;;;4.38;;
51588;SDS011;37671;53.258;6.460;2022-12-29T19:12:18;17.88;;;3.65;;
51588;SDS011;37671;53.258;6.460;2022-12-29T19:14:43;19.73;;;2.70;;
51588;SDS011;37671;53.258;6.460;2022-12-29T19:17:12;22.60;;;3.00;;
51588;SDS011;37671;53.258;6.460;2022-12-29T19:19:39;22.15;;;3.60;;
51588;SDS011;37671;53.258;6.460;2022-12-29T19:22:05;22.05;;;4.03;;
51588;SDS011;37671;53.258;6.460;2022-12-29T19:24:31;23.83;;;3.38;;
51588;SDS011;37671;53.258;6.460;2022-12-29T19:26:56;20.40;;;3.42;;
51588;SDS011;37671;53.258;6.460;2022-12-29T19:29:22;18.63;;;3.90;;
51588;SDS011;37671;53.258;6.460;2022-12-29T19:31:48;18.25;;;3.10;;
51588;SDS011;37671;53.258;6.460;2022-12-29T19:34:14;18.88;;;3.22;;
51588;SDS011;37671;53.258;6.460;2022-12-29T19:36:41;21.70;;;3.65;;
51588;SDS011;37671;53.258;6.460;2022-12-29T19:39:08;23.48;;;4.82;;
51588;SDS011;37671;53.258;6.460;2022-12-29T19:41:34;23.65;;;4.20;;
51588;SDS011;37671;53.258;6.460;2022-12-29T19:44:00;21.27;;;3.92;;
51588;SDS011;37671;53.258;6.460;2022-12-29T19:46:25;22.98;;;4.28;;
51588;SDS011;37671;53.258;6.460;2022-12-29T19:48:51;21.83;;;3.80;;
51588;SDS011;37671;53.258;6.460;2022-12-29T19:51:19;20.35;;;3.67;;
51588;SDS011;37671;53.258;6.460;2022-12-29T19:53:44;19.80;;;3.70;;
51588;SDS011;37671;53.258;6.460;2022-12-29T19:56:11;20.08;;;3.40;;
51588;SDS011;37671;53.258;6.460;2022-12-29T19:58:38;17.63;;;4.03;;
51588;SDS011;37671;53.258;6.460;2022-12-29T20:01:08;24.15;;;3.22;;
51588;SDS011;37671;53.258;6.460;2022-12-29T20:03:38;23.90;;;3.35;;
51588;SDS011;37671;53.258;6.460;2022-12-29T20:06:05;21.17;;;3.45;;
51588;SDS011;37671;53.258;6.460;2022-12-29T20:08:31;18.98;;;3.15;;
51588;SDS011;37671;53.258;6.460;2022-12-29T20:13:24;23.48;;;4.35;;
51588;SDS011;37671;53.258;6.460;2022-12-29T20:15:50;19.95;;;3.97;;
51588;SDS011;37671;53.258;6.460;2022-12-29T20:18:20;19.05;;;3.75;;
51588;SDS011;37671;53.258;6.460;2022-12-29T20:20:46;20.80;;;3.42;;
51588;SDS011;37671;53.258;6.460;2022-12-29T20:23:11;24.95;;;4.38;;
51588;SDS011;37671;53.258;6.460;2022-12-29T20:25:37;21.58;;;3.28;;
51588;SDS011;37671;53.258;6.460;2022-12-29T20:28:03;22.08;;;4.25;;
51588;SDS011;37671;53.258;6.460;2022-12-29T20:30:28;19.90;;;3.80;;
51588;SDS011;37671;53.258;6.460;2022-12-29T20:32:54;19.52;;;3.60;;
51588;SDS011;37671;53.258;6.460;2022-12-29T20:35:19;18.77;;;3.88;;
51588;SDS011;37671;53.258;6.460;2022-12-29T20:37:45;28.85;;;4.47;;
51588;SDS011;37671;53.258;6.460;2022-12-29T20:40:11;21.05;;;3.67;;
51588;SDS011;37671;53.258;6.460;2022-12-29T20:42:37;24.85;;;3.85;;
51588;SDS011;37671;53.258;6.460;2022-12-29T20:45:02;21.98;;;3.15;;
51588;SDS011;37671;53.258;6.460;2022-12-29T20:47:28;23.50;;;3.40;;
51588;SDS011;37671;53.258;6.460;2022-12-29T20:49:54;15.23;;;2.72;;
51588;SDS011;37671;53.258;6.460;2022-12-29T20:52:19;21.38;;;3.40;;
51588;SDS011;37671;53.258;6.460;2022-12-29T20:54:45;28.80;;;4.50;;
51588;SDS011;37671;53.258;6.460;2022-12-29T20:57:11;23.35;;;3.42;;
51588;SDS011;37671;53.258;6.460;2022-12-29T20:59:37;24.75;;;4.53;;
51588;SDS011;37671;53.258;6.460;2022-12-29T21:02:03;23.10;;;3.05;;
51588;SDS011;37671;53.258;6.460;2022-12-29T21:04:28;23.05;;;3.38;;
51588;SDS011;37671;53.258;6.460;2022-12-29T21:06:54;22.20;;;3.40;;
51588;SDS011;37671;53.258;6.460;2022-12-29T21:09:19;23.33;;;4.00;;
51588;SDS011;37671;53.258;6.460;2022-12-29T21:11:46;24.63;;;3.95;;
51588;SDS011;37671;53.258;6.460;2022-12-29T21:14:11;18.92;;;4.18;;
51588;SDS011;37671;53.258;6.460;2022-12-29T21:16:37;24.05;;;4.78;;